Time;durP1;ratioP1;P1;durP2;ratioP2;P2;SDS_P1;SDS_P2;PMS_P1;PMS_P2;Temp;Humidity;BMP_temperature;BMP_pressure;BME280_temperature;BME280_humidity;BME280_pressure;Samples;Min_cycle;Max_cycle;Signal;HPM_P1;HPM_P2
2023/04/08 00:01:53;;;;;;;28.25;13.35;;;;;;;9.64;81.26;101984.13;3613644;39;20108;-67
2023/04/08 00:04:18;;;;;;;25.95;14.02;;;;;;;9.60;80.61;101977.13;3613250;39;20055;-67
2023/04/08 00:06:44;;;;;;;25.48;13.32;;;;;;;9.67;81.13;101990.28;3614066;39;20046;-67
2023/04/08 00:09:10;;;;;;;22.92;13.05;;;;;;;9.69;81.18;101990.19;3612710;39;20058;-67
2023/04/08 00:11:36;;;;;;;21.38;12.75;;;;;;;9.69;81.26;101980.34;3606306;39;20047;-67
2023/04/08 00:14:03;;;;;;;22.63;13.10;;;;;;;9.73;80.70;101994.50;3616679;39;20066;-67
2023/04/08 00:16:29;;;;;;;24.80;13.30;;;;;;;9.73;81.42;101984.63;3613696;39;20050;-67
2023/04/08 00:18:55;;;;;;;20.58;12.95;;;;;;;9.76;80.53;101983.66;3613359;39;20086;-67
2023/04/08 00:21:22;;;;;;;22.42;13.90;;;;;;;9.76;80.15;101989.88;3614186;39;20061;-66
2023/04/08 00:23:48;;;;;;;21.13;13.98;;;;;;;9.62;80.39;101961.84;3613370;39;20039;-67
2023/04/08 00:26:14;;;;;;;23.65;14.63;;;;;;;9.74;80.85;101977.47;3615246;39;20080;-67
2023/04/08 00:28:40;;;;;;;23.55;14.85;;;;;;;9.75;80.47;101985.47;3612649;39;20061;-67
2023/04/08 00:31:06;;;;;;;23.42;14.73;;;;;;;9.74;80.62;101990.91;3616341;39;20317;-67
2023/04/08 00:33:32;;;;;;;25.85;14.70;;;;;;;9.74;80.56;101985.53;3614346;39;20098;-67
2023/04/08 00:35:58;;;;;;;28.98;15.93;;;;;;;9.75;81.27;101987.28;3613587;39;20050;-67
2023/04/08 00:38:23;;;;;;;29.90;16.38;;;;;;;9.75;80.51;101987.28;3612775;39;20389;-67
2023/04/08 00:40:49;;;;;;;27.98;16.60;;;;;;;9.75;81.18;101988.16;3614164;39;20062;-66
2023/04/08 00:43:15;;;;;;;28.17;17.40;;;;;;;9.76;80.88;101987.19;3615369;39;20047;-67
2023/04/08 00:45:41;;;;;;;28.67;17.58;;;;;;;9.48;80.42;101944.50;3614013;39;20365;-67
2023/04/08 00:48:06;;;;;;;28.77;17.70;;;;;;;9.75;80.80;101998.88;3615342;39;20055;-66
2023/04/08 00:50:32;;;;;;;31.50;17.98;;;;;;;9.75;80.98;102000.72;3613466;39;20370;-67
2023/04/08 00:52:58;;;;;;;27.38;17.27;;;;;;;9.73;81.02;101995.38;3615814;39;20063;-67
2023/04/08 00:55:23;;;;;;;31.67;17.63;;;;;;;9.73;81.50;101986.44;3615016;39;20050;-67
2023/04/08 00:57:49;;;;;;;33.40;19.92;;;;;;;9.77;80.84;101997.03;3613949;39;20082;-67
2023/04/08 01:00:15;;;;;;;26.65;18.10;;;;;;;9.79;81.49;101994.28;3615939;39;20053;-67
2023/04/08 01:03:12;;;;;;;33.80;17.35;;;;;;;9.79;81.15;101994.28;3617121;39;20091;-67
2023/04/08 01:06:34;;;;;;;28.40;19.67;;;;;;;9.71;81.66;101982.97;3614361;39;20328;-66
2023/04/08 01:09:04;;;;;;;34.58;19.38;;;;;;;9.78;81.71;101997.91;3612906;39;20381;-67
2023/04/08 01:11:36;;;;;;;31.70;19.42;;;;;;;9.74;81.04;101990.91;3603615;39;20504;-67
2023/04/08 01:14:08;;;;;;;36.00;20.42;;;;;;;9.76;81.63;102000.63;3614818;39;20086;-67
2023/04/08 01:16:41;;;;;;;37.13;21.20;;;;;;;9.78;82.50;102003.28;3615241;39;20063;-67
2023/04/08 01:19:09;;;;;;;35.80;20.90;;;;;;;9.80;81.80;101998.72;3617057;39;20354;-68
2023/04/08 01:21:37;;;;;;;36.75;21.42;;;;;;;9.80;81.48;101996.03;3606980;39;20051;-67
2023/04/08 01:24:28;;;;;;;31.88;20.60;;;;;;;9.77;82.55;102002.41;3615718;39;20261;-68
2023/04/08 01:26:56;;;;;;;39.53;21.98;;;;;;;9.79;81.59;102002.31;3614443;39;20323;-68
2023/04/08 01:29:25;;;;;;;36.22;22.02;;;;;;;9.78;82.02;101995.22;3617362;39;20080;-68
2023/04/08 01:31:55;;;;;;;39.80;22.95;;;;;;;9.59;82.47;101972.72;3617920;39;20051;-67
2023/04/08 01:34:24;;;;;;;38.80;23.17;;;;;;;9.79;82.29;102007.69;3618128;39;20046;-67
2023/04/08 01:36:52;;;;;;;37.05;21.88;;;;;;;9.79;82.96;102009.50;3608987;39;20059;-67
2023/04/08 01:39:20;;;;;;;38.15;23.92;;;;;;;9.66;82.76;101976.91;3618566;39;20054;-68
2023/04/08 01:41:49;;;;;;;40.30;23.45;;;;;;;9.79;82.68;102010.38;3614202;39;20058;-68
2023/04/08 01:44:19;;;;;;;41.25;23.80;;;;;;;9.78;83.66;102008.63;3616650;39;20367;-68
2023/04/08 01:46:48;;;;;;;42.40;23.92;;;;;;;9.79;84.21;102017.56;3613759;39;20042;-68
2023/04/08 01:49:16;;;;;;;37.80;22.65;;;;;;;9.77;84.28;102012.28;3618352;39;20058;-67
2023/04/08 01:51:45;;;;;;;42.13;24.52;;;;;;;9.50;84.23;101960.53;3617596;39;20544;-67
2023/04/08 01:54:11;;;;;;;36.15;23.63;;;;;;;9.78;83.58;102014.00;3615613;39;20059;-67
2023/04/08 01:56:43;;;;;;;39.58;23.40;;;;;;;9.75;83.97;102014.13;3617019;39;20100;-66
2023/04/08 01:59:14;;;;;;;33.35;20.92;;;;;;;9.71;84.20;102009.81;3615226;39;20085;-66
2023/04/08 02:01:43;;;;;;;38.72;22.48;;;;;;;9.69;83.95;102003.63;3616053;39;20090;-66
2023/04/08 02:04:09;;;;;;;33.95;22.23;;;;;;;9.66;84.83;102009.13;3615506;39;20047;-66
2023/04/08 02:06:36;;;;;;;34.88;20.90;;;;;;;9.63;84.71;102006.56;3616390;39;20381;-65
2023/04/08 02:09:03;;;;;;;34.03;21.40;;;;;;;9.62;84.78;102015.56;3617393;39;20084;-64
2023/04/08 02:11:28;;;;;;;37.15;21.73;;;;;;;9.58;85.09;102005.84;3615479;39;20047;-64
2023/04/08 02:13:54;;;;;;;35.78;21.45;;;;;;;9.59;85.33;102008.47;3615517;39;20121;-64
2023/04/08 02:16:46;;;;;;;34.13;22.55;;;;;;;9.42;85.66;101985.00;3615165;39;20050;-63
2023/04/08 02:19:26;;;;;;;33.45;22.20;;;;;;;9.52;85.26;102004.28;3614185;39;20100;-63
2023/04/08 02:22:09;;;;;;;36.17;22.85;;;;;;;9.57;86.05;102015.72;3614263;39;20378;-63
2023/04/08 02:24:38;;;;;;;37.28;23.20;;;;;;;9.57;86.53;102009.47;3617443;39;20078;-65
2023/04/08 02:27:04;;;;;;;32.92;22.55;;;;;;;9.49;86.46;102005.28;3615646;39;20151;-64
2023/04/08 02:29:35;;;;;;;33.95;22.85;;;;;;;9.57;85.61;102009.47;3613264;39;20059;-62
2023/04/08 02:32:05;;;;;;;37.35;22.65;;;;;;;9.57;86.80;102017.53;3614596;39;20050;-62
2023/04/08 02:34:34;;;;;;;38.33;23.23;;;;;;;9.56;86.15;102024.72;3613435;39;20120;-63
2023/04/08 02:37:01;;;;;;;34.60;22.35;;;;;;;9.20;86.77;101962.59;3616642;39;20382;-62
2023/04/08 02:39:32;;;;;;;39.50;23.63;;;;;;;9.54;86.73;102022.06;3617315;39;20114;-62
2023/04/08 02:41:57;;;;;;;35.55;23.55;;;;;;;9.52;86.72;102026.63;3613523;39;20075;-62
2023/04/08 02:44:23;;;;;;;37.15;23.67;;;;;;;9.50;87.26;102020.44;3618386;39;20506;-62
2023/04/08 02:46:49;;;;;;;35.22;24.23;;;;;;;9.51;87.46;102024.00;3615725;39;20099;-62
2023/04/08 02:49:15;;;;;;;36.25;24.83;;;;;;;9.53;87.26;102024.81;3612399;39;20047;-63
2023/04/08 02:51:40;;;;;;;33.03;24.27;;;;;;;9.56;86.89;102031.88;3614501;39;20396;-62
2023/04/08 02:54:06;;;;;;;35.72;23.58;;;;;;;9.46;86.83;102017.94;3617005;39;20050;-62
2023/04/08 02:56:31;;;;;;;35.58;23.05;;;;;;;9.52;87.41;102028.44;3614998;39;20055;-63
2023/04/08 02:58:57;;;;;;;36.55;24.13;;;;;;;9.53;86.57;102027.50;3615421;39;20054;-62
2023/04/08 03:01:23;;;;;;;43.70;24.42;;;;;;;9.57;87.58;102033.63;3615335;39;20074;-62
2023/04/08 03:03:49;;;;;;;37.92;24.33;;;;;;;9.57;87.46;102030.94;3615194;39;20042;-62
2023/04/08 03:06:15;;;;;;;35.08;24.73;;;;;;;9.57;87.37;102033.63;3615104;39;20334;-62
2023/04/08 03:08:41;;;;;;;35.28;24.10;;;;;;;9.54;87.37;102038.16;3613816;39;20054;-62
2023/04/08 03:11:07;;;;;;;34.80;24.85;;;;;;;9.53;87.13;102030.19;3612726;39;20393;-62
2023/04/08 03:13:33;;;;;;;36.00;24.70;;;;;;;9.54;87.63;102032.81;3610374;39;20130;-62
2023/04/08 03:15:58;;;;;;;37.85;24.58;;;;;;;9.33;87.42;102005.94;3610874;39;20058;-63
2023/04/08 03:18:24;;;;;;;35.80;23.77;;;;;;;9.52;87.27;102034.69;3601016;39;20094;-64
2023/04/08 03:20:50;;;;;;;39.08;24.35;;;;;;;9.52;87.76;102037.38;3613388;39;20408;-62
2023/04/08 03:23:16;;;;;;;43.10;26.60;;;;;;;9.50;87.23;102041.91;3604305;39;20104;-64
2023/04/08 03:25:41;;;;;;;39.03;27.17;;;;;;;9.47;87.05;102030.41;3613428;39;20050;-64
2023/04/08 03:28:07;;;;;;;42.85;27.38;;;;;;;9.46;87.72;102034.91;3612268;39;20054;-65
2023/04/08 03:30:33;;;;;;;42.42;26.25;;;;;;;9.43;88.68;102029.66;3613267;39;20055;-65
2023/04/08 03:32:58;;;;;;;43.35;26.50;;;;;;;9.49;88.79;102034.81;3614254;39;20050;-65
2023/04/08 03:35:24;;;;;;;46.20;28.98;;;;;;;9.50;88.10;102039.22;3614817;39;20727;-66
2023/04/08 03:37:50;;;;;;;44.22;28.52;;;;;;;9.51;88.36;102040.09;3613061;39;20389;-67
2023/04/08 03:40:15;;;;;;;41.47;27.48;;;;;;;9.50;87.76;102038.34;3609094;39;20059;-68
2023/04/08 03:42:41;;;;;;;43.90;28.02;;;;;;;9.51;88.78;102038.31;3614501;39;20138;-69
2023/04/08 03:45:07;;;;;;;47.85;27.48;;;;;;;9.50;88.01;102035.69;3613199;39;20050;-69
2023/04/08 03:47:33;;;;;;;50.25;28.90;;;;;;;9.45;88.90;102029.59;3617940;39;20046;-69
2023/04/08 03:49:59;;;;;;;48.10;28.83;;;;;;;9.50;87.98;102036.53;3614340;39;20491;-71
2023/04/08 03:52:24;;;;;;;42.05;29.80;;;;;;;9.50;88.24;102041.03;3613137;39;20453;-70
2023/04/08 03:54:50;;;;;;;49.35;29.77;;;;;;;9.49;88.31;102033.94;3613333;39;20127;-70
2023/04/08 03:57:16;;;;;;;50.45;27.85;;;;;;;9.51;88.90;102048.16;3612826;39;20427;-70
2023/04/08 03:59:41;;;;;;;40.92;27.77;;;;;;;9.52;88.79;102050.78;3612957;39;20080;-70
2023/04/08 04:02:07;;;;;;;53.40;30.02;;;;;;;9.52;87.47;102047.25;3614050;39;20059;-71
2023/04/08 04:04:34;;;;;;;46.03;28.33;;;;;;;9.49;88.29;102045.53;3617107;39;20062;-72
2023/04/08 04:07:00;;;;;;;44.95;28.70;;;;;;;9.49;87.97;102040.19;3616645;39;20333;-72
2023/04/08 04:09:26;;;;;;;48.95;28.90;;;;;;;9.50;87.91;102041.03;3616421;39;20062;-72
2023/04/08 04:11:51;;;;;;;49.28;30.30;;;;;;;9.47;88.71;102038.47;3618142;39;20047;-72
2023/04/08 04:14:17;;;;;;;52.25;29.95;;;;;;;9.47;88.63;102044.72;3614217;39;20058;-72
2023/04/08 04:16:43;;;;;;;53.38;30.90;;;;;;;9.43;88.76;102043.09;3613676;39;20490;-72
2023/04/08 04:19:08;;;;;;;53.60;31.08;;;;;;;9.49;88.60;102045.53;3613639;39;20240;-71
2023/04/08 04:21:34;;;;;;;53.25;31.08;;;;;;;9.50;89.59;102047.28;3614273;39;20058;-71
2023/04/08 04:23:59;;;;;;;49.50;32.70;;;;;;;9.47;88.78;102047.41;3616164;39;20066;-70
2023/04/08 04:26:25;;;;;;;55.72;32.58;;;;;;;9.53;89.03;102057.03;3615139;39;20054;-71
2023/04/08 04:28:51;;;;;;;55.58;33.10;;;;;;;9.52;88.66;102058.84;3614328;39;20366;-71
2023/04/08 04:31:20;;;;;;;56.70;33.17;;;;;;;9.51;88.30;102064.25;3615904;39;20062;-70
2023/04/08 04:33:46;;;;;;;60.25;33.63;;;;;;;9.50;88.94;102062.50;3613148;39;20050;-69
2023/04/08 04:36:13;;;;;;;68.85;35.95;;;;;;;9.15;89.10;102010.16;3614721;39;20055;-70
2023/04/08 04:38:39;;;;;;;67.78;36.10;;;;;;;9.51;89.27;102065.16;3604466;39;20043;-69
2023/04/08 04:41:05;;;;;;;68.85;33.25;;;;;;;9.53;89.72;102065.97;3613449;39;20107;-68
2023/04/08 04:43:30;;;;;;;72.18;35.60;;;;;;;9.57;89.65;102063.16;3614855;39;20055;-68
2023/04/08 04:45:56;;;;;;;67.22;34.13;;;;;;;9.57;88.84;102069.41;3613955;39;20054;-68
2023/04/08 04:48:22;;;;;;;73.30;35.13;;;;;;;9.57;89.43;102072.09;3613289;39;20088;-67
2023/04/08 04:51:02;;;;;;;62.88;35.80;;;;;;;9.58;89.11;102078.31;3612793;39;20055;-68
2023/04/08 04:53:29;;;;;;;79.82;37.38;;;;;;;9.59;88.94;102088.16;3615258;39;20338;-68
2023/04/08 04:55:55;;;;;;;68.90;36.05;;;;;;;9.59;89.60;102080.09;3612129;39;20073;-68
2023/04/08 04:58:21;;;;;;;79.88;37.10;;;;;;;9.54;89.82;102083.81;3613162;39;20063;-67
2023/04/08 05:00:46;;;;;;;73.50;38.13;;;;;;;9.58;90.08;102098.03;3617190;39;20046;-67
2023/04/08 05:03:12;;;;;;;75.10;38.42;;;;;;;9.62;90.38;102085.34;3613877;39;20106;-68
2023/04/08 05:05:38;;;;;;;74.57;36.72;;;;;;;9.65;89.57;102093.28;3615959;39;20058;-67
2023/04/08 05:08:04;;;;;;;80.18;38.03;;;;;;;9.67;90.06;102096.78;3615689;39;20412;-67
2023/04/08 05:10:30;;;;;;;75.90;36.80;;;;;;;9.67;89.43;102086.03;3612365;39;20108;-67
2023/04/08 05:12:55;;;;;;;75.53;35.80;;;;;;;9.66;89.07;102095.91;3614024;39;20058;-67
2023/04/08 05:15:21;;;;;;;71.45;35.95;;;;;;;9.66;89.10;102100.41;3614390;39;20054;-66
2023/04/08 05:17:47;;;;;;;65.03;34.85;;;;;;;9.65;89.46;102104.91;3614121;39;20301;-67
2023/04/08 05:20:12;;;;;;;68.07;33.88;;;;;;;9.65;89.53;102109.41;3618024;39;20054;-67
2023/04/08 05:22:38;;;;;;;63.78;31.40;;;;;;;9.63;89.93;102103.19;3613456;39;20250;-69
2023/04/08 05:25:05;;;;;;;53.53;31.85;;;;;;;9.64;89.10;102113.91;3612269;39;20046;-67
2023/04/08 05:27:30;;;;;;;58.03;32.10;;;;;;;8.77;88.63;101962.34;3615935;39;20119;-67
2023/04/08 05:29:56;;;;;;;51.15;29.23;;;;;;;9.64;88.88;102113.00;3611076;39;20067;-69
2023/04/08 05:32:22;;;;;;;52.60;28.85;;;;;;;9.67;89.09;102113.78;3614341;39;20063;-68
2023/04/08 05:34:47;;;;;;;45.97;27.85;;;;;;;9.68;88.36;102115.53;3613257;39;20058;-69
2023/04/08 05:37:13;;;;;;;50.67;27.20;;;;;;;9.69;88.15;102119.94;3614000;39;20126;-68
2023/04/08 05:39:39;;;;;;;49.70;28.52;;;;;;;9.70;87.71;102113.63;3615736;39;20059;-69
2023/04/08 05:42:04;;;;;;;46.17;27.75;;;;;;;9.72;87.73;102124.34;3612461;39;20042;-69
2023/04/08 05:44:30;;;;;;;46.05;27.38;;;;;;;9.68;86.92;102109.28;3614517;39;20370;-69
2023/04/08 05:46:56;;;;;;;46.90;27.27;;;;;;;9.74;87.59;102119.78;3614540;39;20423;-69
2023/04/08 05:49:22;;;;;;;47.70;26.55;;;;;;;9.70;87.55;102118.13;3614323;39;20055;-68
2023/04/08 05:51:48;;;;;;;45.40;26.58;;;;;;;9.77;87.04;102127.75;3613555;39;20058;-68
2023/04/08 05:54:14;;;;;;;41.17;26.55;;;;;;;9.63;86.84;102111.25;3611919;39;20817;-69
2023/04/08 05:56:39;;;;;;;40.03;25.63;;;;;;;9.76;86.26;102131.34;3614121;39;20292;-69
2023/04/08 05:59:05;;;;;;;42.97;25.25;;;;;;;9.74;86.54;102130.53;3604319;39;20047;-70
2023/04/08 06:01:30;;;;;;;43.90;26.35;;;;;;;9.74;87.14;102139.47;3613047;39;20069;-69
2023/04/08 06:03:56;;;;;;;46.95;28.08;;;;;;;9.74;87.81;102135.91;3611484;39;20062;-69
2023/04/08 06:06:22;;;;;;;45.05;27.13;;;;;;;9.75;87.05;102137.66;3614759;39;20111;-69
2023/04/08 06:08:48;;;;;;;50.30;28.50;;;;;;;9.78;87.21;102145.59;3615034;39;20693;-69
2023/04/08 06:11:14;;;;;;;46.47;28.15;;;;;;;9.81;87.23;102147.28;3614810;39;20042;-69
2023/04/08 06:13:39;;;;;;;43.92;29.10;;;;;;;9.79;87.46;102133.91;3614984;39;20073;-69
2023/04/08 06:16:16;;;;;;;45.60;27.88;;;;;;;9.85;86.86;102148.91;3617138;39;20054;-68
2023/04/08 06:18:42;;;;;;;45.70;28.27;;;;;;;9.86;87.62;102151.53;3614862;39;20050;-69
2023/04/08 06:21:09;;;;;;;43.83;28.67;;;;;;;9.87;87.04;102149.75;3615889;39;20400;-68
2023/04/08 06:23:34;;;;;;;43.25;28.38;;;;;;;9.89;87.07;102154.09;3613741;39;20058;-68
2023/04/08 06:26:00;;;;;;;44.78;29.70;;;;;;;9.92;86.56;102166.56;3616690;39;20065;-68
2023/04/08 06:28:28;;;;;;;45.65;28.42;;;;;;;9.96;87.17;102157.47;3617537;39;20051;-69
2023/04/08 06:30:54;;;;;;;47.40;28.70;;;;;;;9.97;86.74;102162.75;3614840;39;20448;-69
2023/04/08 06:33:19;;;;;;;41.75;28.45;;;;;;;10.02;86.52;102162.56;3617691;39;20071;-68
2023/04/08 06:35:45;;;;;;;37.72;26.42;;;;;;;10.03;85.11;102163.47;3613890;39;20054;-68
2023/04/08 06:38:11;;;;;;;33.75;22.95;;;;;;;10.03;84.36;102174.22;3616838;39;20050;-68
2023/04/08 06:40:40;;;;;;;28.77;20.85;;;;;;;10.05;84.13;102181.25;3614411;39;20051;-69
2023/04/08 06:43:06;;;;;;;28.85;19.80;;;;;;;10.09;82.41;102179.38;3612191;39;20062;-68
2023/04/08 06:45:33;;;;;;;27.17;19.45;;;;;;;10.09;81.85;102180.25;3614427;39;20050;-68
2023/04/08 06:47:59;;;;;;;28.70;19.92;;;;;;;10.13;82.11;102183.69;3614187;39;20058;-67
2023/04/08 06:50:24;;;;;;;25.40;19.10;;;;;;;10.16;80.97;102180.88;3612111;39;20050;-67
2023/04/08 06:52:50;;;;;;;27.23;18.98;;;;;;;10.22;81.38;102183.31;3613425;39;20074;-67
2023/04/08 06:55:16;;;;;;;27.27;19.65;;;;;;;10.28;80.83;102184.94;3615761;39;20046;-67
2023/04/08 06:57:41;;;;;;;27.00;18.58;;;;;;;10.27;79.46;102181.34;3613361;39;20060;-67
2023/04/08 07:00:08;;;;;;;25.02;18.27;;;;;;;10.37;79.80;102193.53;3611265;39;20047;-68
2023/04/08 07:02:34;;;;;;;24.55;18.42;;;;;;;10.40;79.18;102198.78;3617528;39;20465;-68
2023/04/08 07:04:59;;;;;;;26.38;19.10;;;;;;;10.43;79.85;102195.06;3616252;39;20046;-68
2023/04/08 07:07:25;;;;;;;26.08;19.15;;;;;;;10.49;79.78;102193.97;3616295;39;20130;-68
2023/04/08 07:09:51;;;;;;;24.83;17.88;;;;;;;10.53;79.36;102200.97;3614948;39;20085;-68
2023/04/08 07:12:16;;;;;;;25.90;18.70;;;;;;;10.47;78.82;102195.84;3612290;39;20071;-67
2023/04/08 07:14:42;;;;;;;25.17;18.70;;;;;;;10.58;79.44;102210.59;3611170;39;20057;-67
2023/04/08 07:17:08;;;;;;;23.38;17.85;;;;;;;10.60;77.95;102213.25;3610772;39;20098;-67
2023/04/08 07:19:33;;;;;;;26.15;18.08;;;;;;;10.60;77.51;102211.44;3614304;39;20066;-67
2023/04/08 07:21:59;;;;;;;25.70;19.52;;;;;;;10.68;79.30;102217.34;3614038;39;20065;-67
2023/04/08 07:24:25;;;;;;;26.48;20.40;;;;;;;10.72;77.99;102220.81;3611921;39;20091;-67
2023/04/08 07:26:51;;;;;;;26.60;19.42;;;;;;;10.72;77.71;102225.31;3613911;39;20063;-67
2023/04/08 07:29:17;;;;;;;25.38;18.60;;;;;;;10.06;77.72;102120.38;3612152;39;20134;-67
2023/04/08 07:31:43;;;;;;;23.63;18.45;;;;;;;10.68;78.09;102227.25;3611179;39;20054;-67
2023/04/08 07:34:10;;;;;;;25.27;19.70;;;;;;;10.67;77.37;102230.88;3611709;39;20131;-67
2023/04/08 07:36:36;;;;;;;25.83;19.33;;;;;;;10.63;77.93;102224.75;3614245;39;20111;-67
2023/04/08 07:39:02;;;;;;;23.80;18.63;;;;;;;10.66;78.12;102223.75;3614402;39;20054;-67
2023/04/08 07:41:27;;;;;;;22.13;18.10;;;;;;;10.42;77.69;102199.56;3613691;39;20049;-67
2023/04/08 07:43:53;;;;;;;24.02;18.35;;;;;;;10.60;76.86;102243.69;3615238;39;20062;-68
2023/04/08 07:46:20;;;;;;;25.15;18.90;;;;;;;10.60;77.95;102232.06;3614423;39;20274;-68
2023/04/08 07:48:46;;;;;;;24.88;18.77;;;;;;;10.61;77.67;102241.88;3615058;39;20102;-68
2023/04/08 07:51:12;;;;;;;22.63;17.33;;;;;;;10.55;77.00;102237.59;3615129;39;20135;-68
2023/04/08 07:53:42;;;;;;;23.83;17.77;;;;;;;10.51;76.62;102235.13;3613199;39;20297;-68
2023/04/08 07:56:13;;;;;;;24.63;18.85;;;;;;;10.45;77.34;102233.53;3614398;39;20116;-68
2023/04/08 07:58:39;;;;;;;24.17;18.15;;;;;;;10.49;77.06;102245.03;3611521;39;20065;-68
2023/04/08 08:01:14;;;;;;;23.52;18.15;;;;;;;10.49;76.58;102243.22;3615850;39;20904;-68
2023/04/08 08:03:40;;;;;;;24.42;17.77;;;;;;;10.55;77.01;102263.63;3617423;39;20055;-70
2023/04/08 08:06:06;;;;;;;24.95;18.13;;;;;;;10.58;77.22;102259.00;3614977;39;20061;-69
2023/04/08 08:08:32;;;;;;;24.35;19.35;;;;;;;10.66;78.62;102250.66;3613394;39;20077;-68
2023/04/08 08:10:57;;;;;;;26.42;19.77;;;;;;;10.70;78.26;102257.66;3615491;39;20063;-69
2023/04/08 08:13:23;;;;;;;24.83;19.25;;;;;;;10.69;77.65;102261.28;3615109;39;20043;-69
2023/04/08 08:15:52;;;;;;;26.70;20.40;;;;;;;10.71;77.82;102258.53;3616011;39;20375;-68
2023/04/08 08:18:18;;;;;;;25.85;19.77;;;;;;;10.78;78.95;102266.28;3614097;39;20053;-69
2023/04/08 08:20:44;;;;;;;24.52;19.77;;;;;;;10.76;77.80;102252.03;3606157;39;20066;-69
2023/04/08 08:23:09;;;;;;;25.55;19.33;;;;;;;10.90;78.93;102270.31;3618023;39;20092;-68
2023/04/08 08:25:35;;;;;;;23.38;19.30;;;;;;;10.90;76.25;102267.63;3614354;39;20050;-68
2023/04/08 08:28:01;;;;;;;26.67;20.17;;;;;;;10.89;77.41;102269.44;3617481;39;20347;-69
2023/04/08 08:30:27;;;;;;;27.23;21.02;;;;;;;10.90;77.99;102276.56;3616563;39;20066;-69
2023/04/08 08:32:53;;;;;;;25.45;19.55;;;;;;;10.93;77.75;102281.81;3613785;39;20703;-69
2023/04/08 08:35:18;;;;;;;23.05;18.10;;;;;;;10.97;77.20;102279.00;3612415;39;20674;-69
2023/04/08 08:37:44;;;;;;;22.25;17.45;;;;;;;10.98;76.93;102283.47;3612211;39;20556;-69
2023/04/08 08:40:10;;;;;;;21.80;17.67;;;;;;;10.95;76.17;102278.22;3613825;39;20050;-69
2023/04/08 08:42:38;;;;;;;22.70;18.15;;;;;;;10.95;77.36;102284.47;3616747;39;20062;-69
2023/04/08 08:45:05;;;;;;;21.30;16.92;;;;;;;11.01;76.61;102291.41;3616888;39;20057;-69
2023/04/08 08:47:31;;;;;;;21.35;16.13;;;;;;;10.91;75.27;102272.94;3611973;39;20407;-69
2023/04/08 08:49:57;;;;;;;22.77;16.77;;;;;;;11.06;75.90;102289.41;3614161;39;20114;-69
2023/04/08 08:52:23;;;;;;;23.40;18.38;;;;;;;11.21;77.21;102285.22;3613477;39;20437;-69
2023/04/08 08:54:57;;;;;;;22.60;17.75;;;;;;;11.05;75.27;102247.28;3613280;39;20064;-69
2023/04/08 08:57:23;;;;;;;23.00;18.13;;;;;;;11.46;74.54;102301.22;3612999;39;20055;-69
2023/04/08 08:59:48;;;;;;;24.75;18.27;;;;;;;11.52;75.26;102296.47;3604336;39;20404;-70
2023/04/08 09:02:43;;;;;;;25.02;19.17;;;;;;;11.62;75.03;102303.19;3612938;39;20054;-70
2023/04/08 09:05:09;;;;;;;24.98;19.77;;;;;;;11.52;74.82;102274.03;3605128;39;20064;-70
2023/04/08 09:07:39;;;;;;;27.88;19.67;;;;;;;11.72;74.35;102301.00;3612561;39;20328;-70
2023/04/08 09:10:05;;;;;;;25.23;19.40;;;;;;;11.76;75.03;102302.59;3613003;39;20050;-70
2023/04/08 09:12:31;;;;;;;28.20;21.33;;;;;;;11.79;75.10;102302.47;3608414;39;20082;-70
2023/04/08 09:15:08;;;;;;;28.83;22.17;;;;;;;11.67;73.78;102304.81;3613966;39;20047;-69
2023/04/08 09:17:40;;;;;;;28.42;22.35;;;;;;;11.71;74.75;102311.84;3612298;39;20127;-69
2023/04/08 09:20:11;;;;;;;27.85;21.35;;;;;;;11.71;74.55;102310.03;3603246;39;20357;-70
2023/04/08 09:23:01;;;;;;;27.52;21.05;;;;;;;11.66;73.97;102314.72;3611424;39;20062;-69
2023/04/08 09:25:32;;;;;;;26.75;20.35;;;;;;;11.25;73.79;102254.53;3609474;39;20042;-70
2023/04/08 09:27:59;;;;;;;26.20;19.70;;;;;;;11.53;74.13;102316.19;3613169;39;20055;-70
2023/04/08 09:30:26;;;;;;;28.42;21.90;;;;;;;11.53;74.54;102322.44;3610848;39;20112;-71
2023/04/08 09:32:55;;;;;;;29.30;22.70;;;;;;;11.54;75.54;102320.63;3611005;39;20069;-70
2023/04/08 09:35:23;;;;;;;31.48;22.67;;;;;;;11.37;75.81;102302.47;3603927;39;21722;-68
2023/04/08 09:37:49;;;;;;;27.30;21.27;;;;;;;11.48;74.27;102332.53;3614580;39;20079;-68
2023/04/08 09:40:16;;;;;;;27.05;22.13;;;;;;;11.43;75.07;102325.59;3615340;39;20086;-68
2023/04/08 09:42:51;;;;;;;29.75;23.13;;;;;;;11.44;75.68;102321.94;3617368;39;20058;-69
2023/04/08 09:45:17;;;;;;;29.27;22.73;;;;;;;11.49;76.33;102323.53;3614762;39;20116;-69
2023/04/08 09:47:58;;;;;;;27.85;22.88;;;;;;;11.48;74.55;102329.84;3616439;39;20069;-69
2023/04/08 09:50:31;;;;;;;27.60;21.83;;;;;;;11.51;75.78;102320.75;3612679;39;20069;-71
2023/04/08 09:53:12;;;;;;;29.70;21.90;;;;;;;11.52;75.02;102327.91;3613604;39;20055;-70
2023/04/08 09:55:40;;;;;;;27.48;21.55;;;;;;;11.50;74.25;102332.47;3613366;39;20058;-70
2023/04/08 09:58:20;;;;;;;28.58;22.10;;;;;;;11.51;74.31;102336.91;3617034;39;20408;-71
2023/04/08 10:00:50;;;;;;;27.45;21.38;;;;;;;11.35;74.50;102304.34;3613714;39;20046;-70
2023/04/08 10:03:51;;;;;;;29.80;23.17;;;;;;;11.47;74.27;102329.91;3612282;39;20079;-70
2023/04/08 10:06:18;;;;;;;28.38;22.88;;;;;;;11.29;75.66;102316.28;3615593;39;20055;-70
2023/04/08 10:08:45;;;;;;;24.10;20.00;;;;;;;11.44;75.73;102335.41;3604168;39;20050;-70
2023/04/08 10:11:11;;;;;;;24.52;20.33;;;;;;;11.55;75.91;102336.72;3619651;39;20053;-71
2023/04/08 10:13:37;;;;;;;24.15;19.70;;;;;;;11.54;74.05;102343.03;3615239;39;20062;-71
2023/04/08 10:16:21;;;;;;;25.40;20.30;;;;;;;11.59;74.44;102340.16;3613685;39;20061;-71
2023/04/08 10:18:49;;;;;;;23.88;19.52;;;;;;;11.72;74.17;102341.41;3613977;39;20794;-71
2023/04/08 10:21:36;;;;;;;22.67;19.55;;;;;;;11.88;72.75;102340.78;3614876;39;20055;-71
2023/04/08 10:24:07;;;;;;;23.02;19.90;;;;;;;11.94;73.19;102346.78;3616259;39;20099;-71
2023/04/08 10:26:42;;;;;;;22.35;19.38;;;;;;;11.94;72.60;102338.69;3614290;39;21096;-71
2023/04/08 10:29:17;;;;;;;22.73;19.10;;;;;;;11.93;72.54;102339.66;3615627;39;20058;-71
2023/04/08 10:31:45;;;;;;;24.13;20.08;;;;;;;11.97;72.59;102340.38;3613153;39;20066;-71
2023/04/08 10:34:19;;;;;;;20.83;18.60;;;;;;;12.08;71.96;102332.69;3617804;39;20061;-70
2023/04/08 10:36:46;;;;;;;21.65;19.00;;;;;;;12.15;72.96;102327.94;3611531;39;20066;-70
2023/04/08 10:39:14;;;;;;;21.50;19.20;;;;;;;12.25;71.77;102334.66;3615155;39;20051;-70
2023/04/08 10:41:43;;;;;;;22.38;19.52;;;;;;;12.32;71.45;102325.34;3616199;39;20485;-70
2023/04/08 10:44:24;;;;;;;21.38;18.45;;;;;;;12.44;70.98;102340.09;3617319;39;20046;-70
2023/04/08 10:46:52;;;;;;;19.77;17.67;;;;;;;12.54;70.66;102330.63;3612561;39;20393;-70
2023/04/08 10:49:18;;;;;;;21.42;18.98;;;;;;;12.40;69.55;102292.63;3614110;39;20055;-70
2023/04/08 10:51:45;;;;;;;20.63;18.42;;;;;;;12.58;69.43;102316.06;3614663;39;20093;-70
2023/04/08 10:54:15;;;;;;;21.00;18.70;;;;;;;12.83;69.76;102325.69;3616793;39;20099;-70
2023/04/08 10:56:52;;;;;;;20.38;18.15;;;;;;;12.95;68.95;102320.59;3615013;39;20046;-70
2023/04/08 10:59:29;;;;;;;20.75;18.55;;;;;;;13.39;67.66;102314.88;3614298;39;20303;-70
2023/04/08 11:01:55;;;;;;;20.98;18.75;;;;;;;13.97;67.65;102316.44;3616160;39;20090;-70
2023/04/08 11:04:24;;;;;;;18.83;16.83;;;;;;;14.39;63.40;102313.25;3616502;39;20047;-70
2023/04/08 11:06:50;;;;;;;17.80;16.00;;;;;;;14.84;61.98;102318.97;3613164;39;20058;-70
2023/04/08 11:09:16;;;;;;;18.85;16.85;;;;;;;15.02;59.33;102315.22;3615291;39;20051;-70
2023/04/08 11:11:45;;;;;;;17.75;15.88;;;;;;;15.03;59.42;102307.97;3618646;39;20293;-70
2023/04/08 11:14:12;;;;;;;18.17;16.27;;;;;;;15.15;58.71;102271.19;3618541;39;20099;-70
2023/04/08 11:16:39;;;;;;;18.83;16.88;;;;;;;15.47;59.34;102308.09;3606385;39;20047;-70
2023/04/08 11:19:06;;;;;;;19.88;16.45;;;;;;;15.33;58.43;102310.78;3616679;39;20053;-71